map of CGF home
CGF - Airport
Location
City:  Cleveland, Ohio, United States
Name:Cuyahoga County Airport
ICAO:KCGF
IATA:CGF
FAA LID:CGF

Details
Type:Airport (Airfield)
Use:Public/Civil
Latitude:4133'52"N (41.564583)
Longitude:8129'14"W (-81.487221)
Datum:WGS 1984
Elevation:876 ft (267 m)
Variation:8.54W (WMM2015 magnetic declination)
-0.02 annual change
Runways:1
Longest:5502 × 100 ft (1677 × 30.5 m), paved

Time
Time Zone:UTC-5 (DST-4)
Local Time:

Weather
METAR:KCGF 181745Z 00000KT 10SM OVC025 01/M05 A3022

Related Locations
Nearby:
Farthest:YAUG: 11405 mi / 18355 km
Augusta [Augusta Airport], WA, AU

Find:

   beyond  
but within

Other Information
Maps:
NOTAMs:
Links:
Sources:

  
  • flag of United States
  • flag of Ohio
  • flag of Cleveland
  

Airport Diagram

Airport diagram for CGF

Airport diagram PDF

Sectional Chart

Flight Planning
at skyvector.com

Satellite Image

Google Maps Satellite view

 

Copyright © 2004-2018 Karl L. Swartz. All rights reserved.
The Great Circle Mapper name and logo are trademarks of the Great Circle Mapper.
All other trademarks mentioned herein belong to their respective owners.
Please see credits for attibutions and further copyright information.

  Follow gcmap on Facebook Follow gcmap on Twitter Follow gcmap on Google+ GCmap on LinkedIn

hCard Microformat

Geo Microformat